Time;durP1;ratioP1;P1;durP2;ratioP2;P2;SDS_P1;SDS_P2;PMS_P1;PMS_P2;Temp;Humidity;BMP_temperature;BMP_pressure;BME280_temperature;BME280_humidity;BME280_pressure;Samples;Min_cycle;Max_cycle;Signal;HPM_P1;HPM_P2
2021/12/22 12:57:38;;;;;;;9.30;5.10;;;;;;;;;;5090643;28;20579;-77
2021/12/22 13:00:06;;;;;;;6.45;5.80;;;;;;;;;;5090687;28;20206;-78
2021/12/22 13:02:33;;;;;;;6.00;5.53;;;;;;;;;;5089383;28;20596;-78
2021/12/22 13:05:11;;;;;;;7.45;6.28;;;;;;;;;;5090819;28;20168;-78
2021/12/22 13:07:38;;;;;;;8.30;5.95;;;;;;;;;;5090784;28;20167;-78
2021/12/22 13:10:10;;;;;;;6.10;5.55;;;;;;;;;;5089557;28;20546;-81
2021/12/22 13:18:04;;;;;;;6.13;5.72;;;;;;;;;;5090476;28;20272;-78
2021/12/22 13:20:32;;;;;;;6.45;5.75;;;;;;;;;;5090336;28;20179;-78
2021/12/22 13:22:59;;;;;;;5.20;4.72;;;;;;;;;;5090367;28;20164;-83
2021/12/22 13:25:27;;;;;;;7.40;5.30;;;;;;;;;;5089040;28;20217;-80
2021/12/22 13:27:54;;;;;;;11.45;6.05;;;;;;;;;;5089183;28;20168;-80
2021/12/22 13:30:25;;;;;;;5.60;5.20;;;;;;;;;;5090300;28;20171;-80
2021/12/22 13:33:04;;;;;;;6.60;6.10;;;;;;;;;;5088893;28;20613;-80
2021/12/22 13:35:50;;;;;;;5.43;4.93;;;;;;;;;;5089932;28;20207;-80
2021/12/22 13:38:20;;;;;;;9.68;6.15;;;;;;;;;;5089503;28;20180;-79
2021/12/22 13:40:52;;;;;;;10.82;5.70;;;;;;;;;;5088693;28;20164;-79
2021/12/22 13:43:22;;;;;;;7.28;5.93;;;;;;;;;;5089997;28;20192;-81
2021/12/22 13:45:49;;;;;;;9.40;5.85;;;;;;;;;;5088698;28;20172;-80
2021/12/22 13:48:23;;;;;;;6.40;5.78;;;;;;;;;;5089811;28;20247;-78
2021/12/22 13:50:49;;;;;;;6.45;5.28;;;;;;;;;;5089842;28;20195;-78
2021/12/22 13:53:17;;;;;;;6.20;5.70;;;;;;;;;;5089931;28;20202;-78
2021/12/22 13:55:44;;;;;;;7.50;5.22;;;;;;;;;;5089424;28;20227;-77
2021/12/22 13:58:29;;;;;;;7.43;5.25;;;;;;;;;;5089641;28;20172;-77
2021/12/22 14:01:11;;;;;;;6.53;5.85;;;;;;;;;;5089660;28;20225;-77
2021/12/22 14:03:36;;;;;;;6.82;5.78;;;;;;;;;;5089622;28;20160;-77
2021/12/22 14:06:06;;;;;;;6.03;5.60;;;;;;;;;;5089558;28;20168;-87
2021/12/22 14:08:33;;;;;;;5.75;5.22;;;;;;;;;;5078459;28;20629;-81
2021/12/22 14:10:59;;;;;;;6.38;5.75;;;;;;;;;;5075986;28;20191;-83
2021/12/22 14:13:31;;;;;;;5.70;5.20;;;;;;;;;;5076004;28;20650;-84
2021/12/22 14:15:57;;;;;;;5.38;4.93;;;;;;;;;;5075998;28;20267;-76
2021/12/22 14:18:36;;;;;;;6.82;6.25;;;;;;;;;;5075850;28;20161;-76
2021/12/22 14:21:02;;;;;;;8.05;5.70;;;;;;;;;;5075874;28;20173;-78
2021/12/22 14:23:28;;;;;;;6.05;5.45;;;;;;;;;;5075779;28;20640;-79
2021/12/22 14:26:20;;;;;;;6.10;5.63;;;;;;;;;;5075945;28;20164;-79
2021/12/22 14:28:59;;;;;;;6.72;5.75;;;;;;;;;;5073308;28;20295;-76
2021/12/22 14:31:25;;;;;;;8.93;6.00;;;;;;;;;;5075739;28;20179;-76
2021/12/22 14:34:12;;;;;;;8.18;6.55;;;;;;;;;;5075534;28;20168;-77
2021/12/22 14:36:41;;;;;;;12.63;5.78;;;;;;;;;;5075161;28;20736;-76
2021/12/22 14:39:07;;;;;;;6.85;5.63;;;;;;;;;;5074262;28;20168;-77
2021/12/22 14:41:33;;;;;;;6.18;5.35;;;;;;;;;;5075390;28;20248;-77
2021/12/22 14:43:59;;;;;;;5.82;5.30;;;;;;;;;;5074038;28;20279;-77
2021/12/22 14:46:30;;;;;;;6.47;5.88;;;;;;;;;;5074130;28;20172;-77
2021/12/22 14:48:58;;;;;;;6.78;6.13;;;;;;;;;;5074031;28;20275;-78
2021/12/22 14:51:25;;;;;;;8.88;5.60;;;;;;;;;;5075261;28;20166;-78
2021/12/22 14:54:02;;;;;;;6.25;5.75;;;;;;;;;;5075118;28;20169;-78
2021/12/22 14:56:55;;;;;;;7.00;6.05;;;;;;;;;;5074975;28;20215;-82
2021/12/22 14:59:22;;;;;;;6.97;6.38;;;;;;;;;;5074763;28;20238;-79
2021/12/22 15:01:49;;;;;;;8.00;6.07;;;;;;;;;;5074755;28;20203;-81
